sensor_id;sensor_type;location;lat;lon;timestamp;P1;durP1;ratioP1;P2;durP2;ratioP2
37305;SDS011;23193;42.656;21.170;2023-11-22T00:01:06;106.30;;;60.90;;
37305;SDS011;23193;42.656;21.170;2023-11-22T00:03:34;98.85;;;59.78;;
37305;SDS011;23193;42.656;21.170;2023-11-22T00:06:01;88.90;;;52.42;;
37305;SDS011;23193;42.656;21.170;2023-11-22T00:08:28;93.18;;;54.53;;
37305;SDS011;23193;42.656;21.170;2023-11-22T00:10:56;90.38;;;51.75;;
37305;SDS011;23193;42.656;21.170;2023-11-22T00:13:23;95.90;;;56.22;;
37305;SDS011;23193;42.656;21.170;2023-11-22T00:15:51;92.88;;;55.60;;
37305;SDS011;23193;42.656;21.170;2023-11-22T00:18:19;102.13;;;58.05;;
37305;SDS011;23193;42.656;21.170;2023-11-22T00:20:46;95.88;;;57.53;;
37305;SDS011;23193;42.656;21.170;2023-11-22T00:23:14;92.90;;;57.05;;
37305;SDS011;23193;42.656;21.170;2023-11-22T00:25:41;103.05;;;59.22;;
37305;SDS011;23193;42.656;21.170;2023-11-22T00:28:09;98.30;;;59.13;;
37305;SDS011;23193;42.656;21.170;2023-11-22T00:30:36;108.38;;;65.93;;
37305;SDS011;23193;42.656;21.170;2023-11-22T00:33:04;145.23;;;76.55;;
37305;SDS011;23193;42.656;21.170;2023-11-22T00:35:31;71.10;;;42.25;;
37305;SDS011;23193;42.656;21.170;2023-11-22T00:37:59;63.40;;;36.58;;
37305;SDS011;23193;42.656;21.170;2023-11-22T00:40:27;40.65;;;22.88;;
37305;SDS011;23193;42.656;21.170;2023-11-22T00:42:54;48.92;;;28.90;;
37305;SDS011;23193;42.656;21.170;2023-11-22T00:45:21;57.40;;;31.85;;
37305;SDS011;23193;42.656;21.170;2023-11-22T00:47:48;51.50;;;30.95;;
37305;SDS011;23193;42.656;21.170;2023-11-22T00:50:17;61.42;;;35.45;;
37305;SDS011;23193;42.656;21.170;2023-11-22T00:52:47;63.17;;;38.15;;
37305;SDS011;23193;42.656;21.170;2023-11-22T00:55:15;73.53;;;43.97;;
37305;SDS011;23193;42.656;21.170;2023-11-22T00:57:42;94.70;;;53.63;;
37305;SDS011;23193;42.656;21.170;2023-11-22T01:00:10;101.03;;;55.58;;
37305;SDS011;23193;42.656;21.170;2023-11-22T01:02:39;104.28;;;58.55;;
37305;SDS011;23193;42.656;21.170;2023-11-22T01:05:07;84.18;;;51.53;;
37305;SDS011;23193;42.656;21.170;2023-11-22T01:07:42;83.78;;;51.63;;
37305;SDS011;23193;42.656;21.170;2023-11-22T01:10:09;86.00;;;50.28;;
37305;SDS011;23193;42.656;21.170;2023-11-22T01:12:37;81.60;;;47.10;;
37305;SDS011;23193;42.656;21.170;2023-11-22T01:15:04;88.93;;;52.85;;
37305;SDS011;23193;42.656;21.170;2023-11-22T01:17:32;89.80;;;51.25;;
37305;SDS011;23193;42.656;21.170;2023-11-22T01:20:01;72.57;;;46.55;;
37305;SDS011;23193;42.656;21.170;2023-11-22T01:22:29;65.70;;;37.70;;
37305;SDS011;23193;42.656;21.170;2023-11-22T01:24:57;72.22;;;43.35;;
37305;SDS011;23193;42.656;21.170;2023-11-22T01:27:24;61.30;;;40.58;;
37305;SDS011;23193;42.656;21.170;2023-11-22T01:29:52;72.97;;;45.13;;
37305;SDS011;23193;42.656;21.170;2023-11-22T01:32:21;68.63;;;44.90;;
37305;SDS011;23193;42.656;21.170;2023-11-22T01:34:48;64.25;;;38.80;;
37305;SDS011;23193;42.656;21.170;2023-11-22T01:37:15;59.08;;;38.83;;
37305;SDS011;23193;42.656;21.170;2023-11-22T01:39:42;55.75;;;36.53;;
37305;SDS011;23193;42.656;21.170;2023-11-22T01:42:09;59.55;;;36.85;;
37305;SDS011;23193;42.656;21.170;2023-11-22T01:44:37;55.17;;;32.10;;
37305;SDS011;23193;42.656;21.170;2023-11-22T01:47:04;47.67;;;27.50;;
37305;SDS011;23193;42.656;21.170;2023-11-22T01:49:31;33.28;;;21.13;;
37305;SDS011;23193;42.656;21.170;2023-11-22T01:51:59;30.42;;;19.70;;
37305;SDS011;23193;42.656;21.170;2023-11-22T01:54:27;35.05;;;23.33;;
37305;SDS011;23193;42.656;21.170;2023-11-22T01:56:55;36.83;;;22.17;;
37305;SDS011;23193;42.656;21.170;2023-11-22T01:59:22;32.78;;;23.40;;
37305;SDS011;23193;42.656;21.170;2023-11-22T02:01:50;34.20;;;22.63;;
37305;SDS011;23193;42.656;21.170;2023-11-22T02:04:17;33.15;;;20.75;;
37305;SDS011;23193;42.656;21.170;2023-11-22T02:06:44;37.10;;;21.33;;
37305;SDS011;23193;42.656;21.170;2023-11-22T02:09:12;30.98;;;20.42;;
37305;SDS011;23193;42.656;21.170;2023-11-22T02:11:42;36.05;;;22.67;;
37305;SDS011;23193;42.656;21.170;2023-11-22T02:14:12;31.42;;;22.10;;
37305;SDS011;23193;42.656;21.170;2023-11-22T02:16:39;34.67;;;20.67;;
37305;SDS011;23193;42.656;21.170;2023-11-22T02:19:08;29.85;;;19.25;;
37305;SDS011;23193;42.656;21.170;2023-11-22T02:21:40;33.28;;;22.58;;
37305;SDS011;23193;42.656;21.170;2023-11-22T02:24:07;28.63;;;18.15;;
37305;SDS011;23193;42.656;21.170;2023-11-22T02:26:34;24.48;;;16.63;;
37305;SDS011;23193;42.656;21.170;2023-11-22T02:29:03;27.75;;;19.30;;
37305;SDS011;23193;42.656;21.170;2023-11-22T02:31:33;29.37;;;19.53;;
37305;SDS011;23193;42.656;21.170;2023-11-22T02:34:00;26.88;;;17.50;;
37305;SDS011;23193;42.656;21.170;2023-11-22T02:36:28;26.50;;;18.65;;
37305;SDS011;23193;42.656;21.170;2023-11-22T02:38:55;26.45;;;18.38;;
37305;SDS011;23193;42.656;21.170;2023-11-22T02:41:22;29.02;;;18.00;;
37305;SDS011;23193;42.656;21.170;2023-11-22T02:43:49;30.83;;;15.95;;
37305;SDS011;23193;42.656;21.170;2023-11-22T02:46:16;24.35;;;17.13;;
37305;SDS011;23193;42.656;21.170;2023-11-22T02:48:44;25.38;;;16.40;;
37305;SDS011;23193;42.656;21.170;2023-11-22T02:51:12;18.48;;;13.05;;
37305;SDS011;23193;42.656;21.170;2023-11-22T02:53:40;18.55;;;13.38;;
37305;SDS011;23193;42.656;21.170;2023-11-22T02:56:11;17.08;;;11.80;;
37305;SDS011;23193;42.656;21.170;2023-11-22T02:58:38;17.27;;;11.73;;
37305;SDS011;23193;42.656;21.170;2023-11-22T03:01:06;12.60;;;9.48;;
37305;SDS011;23193;42.656;21.170;2023-11-22T03:03:34;12.07;;;9.25;;
37305;SDS011;23193;42.656;21.170;2023-11-22T03:06:01;9.82;;;7.85;;
37305;SDS011;23193;42.656;21.170;2023-11-22T03:08:29;9.15;;;7.90;;
37305;SDS011;23193;42.656;21.170;2023-11-22T03:10:56;16.77;;;8.30;;
37305;SDS011;23193;42.656;21.170;2023-11-22T03:13:23;11.48;;;8.82;;
37305;SDS011;23193;42.656;21.170;2023-11-22T03:15:50;10.45;;;8.27;;
37305;SDS011;23193;42.656;21.170;2023-11-22T03:18:18;11.18;;;8.85;;
37305;SDS011;23193;42.656;21.170;2023-11-22T03:20:48;11.02;;;8.43;;
37305;SDS011;23193;42.656;21.170;2023-11-22T03:23:22;10.93;;;8.82;;
37305;SDS011;23193;42.656;21.170;2023-11-22T03:25:49;12.73;;;8.88;;
37305;SDS011;23193;42.656;21.170;2023-11-22T03:28:16;14.07;;;9.65;;
37305;SDS011;23193;42.656;21.170;2023-11-22T03:30:44;11.88;;;8.88;;
37305;SDS011;23193;42.656;21.170;2023-11-22T03:33:12;11.77;;;9.45;;
37305;SDS011;23193;42.656;21.170;2023-11-22T03:35:40;15.48;;;9.70;;
37305;SDS011;23193;42.656;21.170;2023-11-22T03:38:08;13.70;;;10.57;;
37305;SDS011;23193;42.656;21.170;2023-11-22T03:40:36;14.45;;;10.27;;
37305;SDS011;23193;42.656;21.170;2023-11-22T03:43:04;11.52;;;9.73;;
37305;SDS011;23193;42.656;21.170;2023-11-22T03:45:32;17.20;;;10.85;;
37305;SDS011;23193;42.656;21.170;2023-11-22T03:48:00;16.63;;;11.38;;
37305;SDS011;23193;42.656;21.170;2023-11-22T03:50:27;19.05;;;10.80;;
37305;SDS011;23193;42.656;21.170;2023-11-22T03:52:54;14.07;;;10.20;;
37305;SDS011;23193;42.656;21.170;2023-11-22T03:55:21;13.85;;;9.48;;
37305;SDS011;23193;42.656;21.170;2023-11-22T03:57:49;12.52;;;9.30;;
37305;SDS011;23193;42.656;21.170;2023-11-22T04:00:18;17.35;;;9.30;;
37305;SDS011;23193;42.656;21.170;2023-11-22T04:02:46;14.80;;;10.57;;
37305;SDS011;23193;42.656;21.170;2023-11-22T04:05:13;14.98;;;11.07;;
37305;SDS011;23193;42.656;21.170;2023-11-22T04:07:40;16.42;;;11.63;;
37305;SDS011;23193;42.656;21.170;2023-11-22T04:10:08;17.15;;;12.10;;
37305;SDS011;23193;42.656;21.170;2023-11-22T04:12:35;19.02;;;12.48;;
37305;SDS011;23193;42.656;21.170;2023-11-22T04:15:03;19.42;;;12.45;;
37305;SDS011;23193;42.656;21.170;2023-11-22T04:17:30;19.63;;;13.60;;
37305;SDS011;23193;42.656;21.170;2023-11-22T04:19:59;18.35;;;12.77;;
37305;SDS011;23193;42.656;21.170;2023-11-22T04:22:26;21.45;;;13.73;;
37305;SDS011;23193;42.656;21.170;2023-11-22T04:24:53;17.33;;;12.98;;
37305;SDS011;23193;42.656;21.170;2023-11-22T04:27:20;18.20;;;14.07;;
37305;SDS011;23193;42.656;21.170;2023-11-22T04:29:47;16.55;;;13.10;;
37305;SDS011;23193;42.656;21.170;2023-11-22T04:32:14;15.75;;;11.77;;
37305;SDS011;23193;42.656;21.170;2023-11-22T04:34:42;16.90;;;11.75;;
37305;SDS011;23193;42.656;21.170;2023-11-22T04:37:09;18.27;;;11.27;;
37305;SDS011;23193;42.656;21.170;2023-11-22T04:39:36;13.45;;;9.40;;
37305;SDS011;23193;42.656;21.170;2023-11-22T04:42:03;12.75;;;9.98;;
37305;SDS011;23193;42.656;21.170;2023-11-22T04:44:30;14.57;;;10.20;;
37305;SDS011;23193;42.656;21.170;2023-11-22T04:46:58;13.00;;;10.25;;
37305;SDS011;23193;42.656;21.170;2023-11-22T04:49:28;12.80;;;9.80;;
37305;SDS011;23193;42.656;21.170;2023-11-22T04:51:55;17.00;;;11.07;;
37305;SDS011;23193;42.656;21.170;2023-11-22T04:54:22;17.73;;;11.93;;
37305;SDS011;23193;42.656;21.170;2023-11-22T04:56:49;16.05;;;10.88;;
37305;SDS011;23193;42.656;21.170;2023-11-22T04:59:17;14.88;;;10.60;;
37305;SDS011;23193;42.656;21.170;2023-11-22T05:01:45;15.38;;;10.80;;
37305;SDS011;23193;42.656;21.170;2023-11-22T05:04:12;13.18;;;9.70;;
37305;SDS011;23193;42.656;21.170;2023-11-22T05:06:39;12.60;;;9.07;;
37305;SDS011;23193;42.656;21.170;2023-11-22T05:09:06;14.23;;;10.23;;
37305;SDS011;23193;42.656;21.170;2023-11-22T05:11:33;14.88;;;8.75;;
37305;SDS011;23193;42.656;21.170;2023-11-22T05:14:00;12.75;;;9.05;;
37305;SDS011;23193;42.656;21.170;2023-11-22T05:16:27;13.90;;;9.73;;
37305;SDS011;23193;42.656;21.170;2023-11-22T05:18:55;17.58;;;10.50;;
37305;SDS011;23193;42.656;21.170;2023-11-22T05:21:22;12.38;;;9.15;;
37305;SDS011;23193;42.656;21.170;2023-11-22T05:23:49;13.48;;;9.80;;
37305;SDS011;23193;42.656;21.170;2023-11-22T05:26:16;13.73;;;8.95;;
37305;SDS011;23193;42.656;21.170;2023-11-22T05:28:43;19.83;;;10.88;;
37305;SDS011;23193;42.656;21.170;2023-11-22T05:31:10;14.68;;;9.43;;
37305;SDS011;23193;42.656;21.170;2023-11-22T05:33:39;17.58;;;11.43;;
37305;SDS011;23193;42.656;21.170;2023-11-22T05:36:06;17.30;;;11.73;;
37305;SDS011;23193;42.656;21.170;2023-11-22T05:38:34;15.55;;;9.93;;
37305;SDS011;23193;42.656;21.170;2023-11-22T05:41:01;14.63;;;9.77;;
37305;SDS011;23193;42.656;21.170;2023-11-22T05:43:28;13.88;;;9.07;;
37305;SDS011;23193;42.656;21.170;2023-11-22T05:45:55;14.60;;;10.27;;
37305;SDS011;23193;42.656;21.170;2023-11-22T05:48:22;15.48;;;9.45;;
37305;SDS011;23193;42.656;21.170;2023-11-22T05:50:49;16.70;;;9.48;;
37305;SDS011;23193;42.656;21.170;2023-11-22T05:53:17;18.90;;;10.35;;
37305;SDS011;23193;42.656;21.170;2023-11-22T05:55:46;12.88;;;9.20;;
37305;SDS011;23193;42.656;21.170;2023-11-22T05:58:17;14.50;;;8.82;;
37305;SDS011;23193;42.656;21.170;2023-11-22T06:00:45;13.40;;;9.40;;
37305;SDS011;23193;42.656;21.170;2023-11-22T06:03:12;12.73;;;8.65;;
37305;SDS011;23193;42.656;21.170;2023-11-22T06:05:40;11.95;;;8.35;;
37305;SDS011;23193;42.656;21.170;2023-11-22T06:08:07;14.55;;;9.20;;
37305;SDS011;23193;42.656;21.170;2023-11-22T06:10:36;18.20;;;10.02;;
37305;SDS011;23193;42.656;21.170;2023-11-22T06:13:08;14.38;;;9.27;;
37305;SDS011;23193;42.656;21.170;2023-11-22T06:15:37;14.43;;;9.40;;
37305;SDS011;23193;42.656;21.170;2023-11-22T06:18:04;18.55;;;11.43;;
37305;SDS011;23193;42.656;21.170;2023-11-22T06:20:31;18.50;;;10.85;;
37305;SDS011;23193;42.656;21.170;2023-11-22T06:22:59;54.90;;;30.67;;
37305;SDS011;23193;42.656;21.170;2023-11-22T06:25:26;37.83;;;17.10;;
37305;SDS011;23193;42.656;21.170;2023-11-22T06:27:54;19.83;;;11.93;;
37305;SDS011;23193;42.656;21.170;2023-11-22T06:30:25;18.23;;;10.45;;
37305;SDS011;23193;42.656;21.170;2023-11-22T06:32:52;19.23;;;11.15;;
37305;SDS011;23193;42.656;21.170;2023-11-22T06:35:19;15.43;;;11.15;;
37305;SDS011;23193;42.656;21.170;2023-11-22T06:37:46;24.52;;;11.10;;
37305;SDS011;23193;42.656;21.170;2023-11-22T06:40:13;16.38;;;12.68;;
37305;SDS011;23193;42.656;21.170;2023-11-22T06:42:40;18.45;;;12.40;;
37305;SDS011;23193;42.656;21.170;2023-11-22T06:45:08;22.40;;;13.85;;
37305;SDS011;23193;42.656;21.170;2023-11-22T06:47:40;22.13;;;13.38;;
37305;SDS011;23193;42.656;21.170;2023-11-22T06:50:07;26.05;;;16.35;;
37305;SDS011;23193;42.656;21.170;2023-11-22T06:52:39;28.65;;;16.83;;
37305;SDS011;23193;42.656;21.170;2023-11-22T06:55:06;32.17;;;19.50;;
37305;SDS011;23193;42.656;21.170;2023-11-22T06:57:36;31.70;;;15.90;;
37305;SDS011;23193;42.656;21.170;2023-11-22T07:00:04;25.15;;;14.88;;
37305;SDS011;23193;42.656;21.170;2023-11-22T07:02:32;20.17;;;12.93;;
37305;SDS011;23193;42.656;21.170;2023-11-22T07:04:59;20.33;;;12.75;;
37305;SDS011;23193;42.656;21.170;2023-11-22T07:07:27;13.82;;;11.10;;
37305;SDS011;23193;42.656;21.170;2023-11-22T07:09:54;18.30;;;11.20;;
37305;SDS011;23193;42.656;21.170;2023-11-22T07:12:25;27.02;;;16.52;;
37305;SDS011;23193;42.656;21.170;2023-11-22T07:14:53;31.65;;;20.15;;
37305;SDS011;23193;42.656;21.170;2023-11-22T07:17:20;26.95;;;18.10;;
37305;SDS011;23193;42.656;21.170;2023-11-22T07:19:49;23.70;;;14.10;;
37305;SDS011;23193;42.656;21.170;2023-11-22T07:22:18;16.23;;;12.68;;
37305;SDS011;23193;42.656;21.170;2023-11-22T07:24:46;24.10;;;15.50;;
37305;SDS011;23193;42.656;21.170;2023-11-22T07:27:14;23.13;;;16.25;;
37305;SDS011;23193;42.656;21.170;2023-11-22T07:29:42;28.17;;;17.73;;
37305;SDS011;23193;42.656;21.170;2023-11-22T07:32:09;21.55;;;14.20;;
37305;SDS011;23193;42.656;21.170;2023-11-22T07:34:37;19.38;;;13.98;;
37305;SDS011;23193;42.656;21.170;2023-11-22T07:37:06;19.33;;;13.40;;
37305;SDS011;23193;42.656;21.170;2023-11-22T07:39:36;18.92;;;12.95;;
37305;SDS011;23193;42.656;21.170;2023-11-22T07:42:05;18.75;;;11.52;;
37305;SDS011;23193;42.656;21.170;2023-11-22T07:44:35;13.98;;;10.70;;
37305;SDS011;23193;42.656;21.170;2023-11-22T07:47:06;15.98;;;12.15;;
37305;SDS011;23193;42.656;21.170;2023-11-22T07:49:39;18.10;;;13.23;;
37305;SDS011;23193;42.656;21.170;2023-11-22T07:52:08;18.55;;;13.02;;
37305;SDS011;23193;42.656;21.170;2023-11-22T07:54:41;20.67;;;13.60;;
37305;SDS011;23193;42.656;21.170;2023-11-22T07:57:08;22.23;;;15.57;;
37305;SDS011;23193;42.656;21.170;2023-11-22T07:59:35;23.48;;;16.42;;
37305;SDS011;23193;42.656;21.170;2023-11-22T08:02:04;22.15;;;15.38;;
37305;SDS011;23193;42.656;21.170;2023-11-22T08:04:34;26.35;;;16.75;;
37305;SDS011;23193;42.656;21.170;2023-11-22T08:07:02;24.48;;;16.50;;
37305;SDS011;23193;42.656;21.170;2023-11-22T08:09:29;25.45;;;15.45;;
37305;SDS011;23193;42.656;21.170;2023-11-22T08:12:00;21.63;;;13.77;;
37305;SDS011;23193;42.656;21.170;2023-11-22T08:14:32;20.92;;;14.63;;
37305;SDS011;23193;42.656;21.170;2023-11-22T08:16:59;39.85;;;24.83;;
37305;SDS011;23193;42.656;21.170;2023-11-22T08:19:26;44.33;;;26.55;;
37305;SDS011;23193;42.656;21.170;2023-11-22T08:21:54;28.95;;;19.40;;
37305;SDS011;23193;42.656;21.170;2023-11-22T08:24:21;27.23;;;17.48;;
37305;SDS011;23193;42.656;21.170;2023-11-22T08:26:48;51.03;;;29.48;;
37305;SDS011;23193;42.656;21.170;2023-11-22T08:29:16;40.50;;;23.40;;
37305;SDS011;23193;42.656;21.170;2023-11-22T08:31:43;39.25;;;22.75;;
37305;SDS011;23193;42.656;21.170;2023-11-22T08:34:10;32.15;;;18.15;;
37305;SDS011;23193;42.656;21.170;2023-11-22T08:36:38;38.15;;;22.30;;
37305;SDS011;23193;42.656;21.170;2023-11-22T08:39:06;34.17;;;20.30;;
37305;SDS011;23193;42.656;21.170;2023-11-22T08:41:33;41.45;;;25.85;;
37305;SDS011;23193;42.656;21.170;2023-11-22T08:44:00;35.40;;;19.58;;
37305;SDS011;23193;42.656;21.170;2023-11-22T08:46:28;32.78;;;19.60;;
37305;SDS011;23193;42.656;21.170;2023-11-22T08:48:55;33.22;;;20.77;;
37305;SDS011;23193;42.656;21.170;2023-11-22T08:51:23;26.88;;;18.15;;
37305;SDS011;23193;42.656;21.170;2023-11-22T08:53:50;31.40;;;18.60;;
37305;SDS011;23193;42.656;21.170;2023-11-22T08:56:18;22.67;;;14.55;;
37305;SDS011;23193;42.656;21.170;2023-11-22T08:58:46;25.83;;;16.08;;
37305;SDS011;23193;42.656;21.170;2023-11-22T09:01:13;25.40;;;16.13;;
37305;SDS011;23193;42.656;21.170;2023-11-22T09:03:42;27.65;;;16.88;;
37305;SDS011;23193;42.656;21.170;2023-11-22T09:06:12;20.83;;;14.60;;
37305;SDS011;23193;42.656;21.170;2023-11-22T09:08:39;26.88;;;15.35;;
37305;SDS011;23193;42.656;21.170;2023-11-22T09:11:06;21.02;;;13.40;;
37305;SDS011;23193;42.656;21.170;2023-11-22T09:13:34;23.13;;;12.18;;
37305;SDS011;23193;42.656;21.170;2023-11-22T09:16:02;20.70;;;13.85;;
37305;SDS011;23193;42.656;21.170;2023-11-22T09:18:32;19.75;;;13.10;;
37305;SDS011;23193;42.656;21.170;2023-11-22T09:21:00;15.65;;;10.57;;
37305;SDS011;23193;42.656;21.170;2023-11-22T09:23:28;17.73;;;9.77;;
37305;SDS011;23193;42.656;21.170;2023-11-22T09:25:56;14.70;;;10.48;;
37305;SDS011;23193;42.656;21.170;2023-11-22T09:28:24;14.63;;;10.80;;
37305;SDS011;23193;42.656;21.170;2023-11-22T09:30:51;16.58;;;8.93;;
37305;SDS011;23193;42.656;21.170;2023-11-22T09:33:19;11.80;;;7.95;;
37305;SDS011;23193;42.656;21.170;2023-11-22T09:35:46;12.35;;;8.55;;
37305;SDS011;23193;42.656;21.170;2023-11-22T09:38:16;11.15;;;7.63;;
37305;SDS011;23193;42.656;21.170;2023-11-22T09:40:47;15.38;;;9.40;;
37305;SDS011;23193;42.656;21.170;2023-11-22T09:43:19;16.33;;;9.10;;
37305;SDS011;23193;42.656;21.170;2023-11-22T09:45:48;10.52;;;7.18;;
37305;SDS011;23193;42.656;21.170;2023-11-22T09:48:22;13.35;;;8.35;;
37305;SDS011;23193;42.656;21.170;2023-11-22T09:50:53;19.73;;;9.35;;
37305;SDS011;23193;42.656;21.170;2023-11-22T09:53:31;19.45;;;10.68;;
37305;SDS011;23193;42.656;21.170;2023-11-22T09:56:01;18.33;;;10.50;;
37305;SDS011;23193;42.656;21.170;2023-11-22T09:58:30;20.38;;;11.13;;
37305;SDS011;23193;42.656;21.170;2023-11-22T10:01:00;15.93;;;9.50;;
37305;SDS011;23193;42.656;21.170;2023-11-22T10:03:27;20.05;;;11.00;;
37305;SDS011;23193;42.656;21.170;2023-11-22T10:05:58;19.55;;;12.82;;
37305;SDS011;23193;42.656;21.170;2023-11-22T10:08:26;20.77;;;11.50;;
37305;SDS011;23193;42.656;21.170;2023-11-22T10:10:59;16.08;;;10.55;;
37305;SDS011;23193;42.656;21.170;2023-11-22T10:13:27;15.90;;;10.98;;
37305;SDS011;23193;42.656;21.170;2023-11-22T10:15:54;17.70;;;10.73;;
37305;SDS011;23193;42.656;21.170;2023-11-22T10:18:22;20.40;;;11.13;;
37305;SDS011;23193;42.656;21.170;2023-11-22T10:20:51;21.00;;;10.93;;
37305;SDS011;23193;42.656;21.170;2023-11-22T10:23:19;21.27;;;11.63;;
37305;SDS011;23193;42.656;21.170;2023-11-22T10:25:53;19.77;;;11.50;;
37305;SDS011;23193;42.656;21.170;2023-11-22T10:28:20;18.58;;;11.40;;
37305;SDS011;23193;42.656;21.170;2023-11-22T10:30:49;17.45;;;11.07;;
37305;SDS011;23193;42.656;21.170;2023-11-22T10:33:19;19.45;;;12.60;;
37305;SDS011;23193;42.656;21.170;2023-11-22T10:38:20;21.88;;;12.30;;
37305;SDS011;23193;42.656;21.170;2023-11-22T10:40:48;20.83;;;12.43;;
37305;SDS011;23193;42.656;21.170;2023-11-22T10:43:15;21.25;;;12.75;;
37305;SDS011;23193;42.656;21.170;2023-11-22T10:45:44;23.05;;;14.38;;
37305;SDS011;23193;42.656;21.170;2023-11-22T10:48:15;25.65;;;16.70;;
37305;SDS011;23193;42.656;21.170;2023-11-22T10:50:46;26.27;;;15.57;;
37305;SDS011;23193;42.656;21.170;2023-11-22T10:55:44;22.42;;;14.00;;
37305;SDS011;23193;42.656;21.170;2023-11-22T10:58:13;26.88;;;13.82;;
37305;SDS011;23193;42.656;21.170;2023-11-22T11:00:42;21.13;;;13.57;;
37305;SDS011;23193;42.656;21.170;2023-11-22T11:03:14;24.17;;;12.52;;
37305;SDS011;23193;42.656;21.170;2023-11-22T11:05:42;21.58;;;11.85;;
37305;SDS011;23193;42.656;21.170;2023-11-22T11:08:12;26.27;;;14.23;;
37305;SDS011;23193;42.656;21.170;2023-11-22T11:10:41;24.30;;;15.68;;
37305;SDS011;23193;42.656;21.170;2023-11-22T11:13:08;20.95;;;11.68;;
37305;SDS011;23193;42.656;21.170;2023-11-22T11:15:42;21.60;;;14.05;;
37305;SDS011;23193;42.656;21.170;2023-11-22T11:18:15;20.65;;;12.20;;
37305;SDS011;23193;42.656;21.170;2023-11-22T11:23:19;18.70;;;12.02;;
37305;SDS011;23193;42.656;21.170;2023-11-22T11:25:50;19.52;;;13.35;;
37305;SDS011;23193;42.656;21.170;2023-11-22T11:28:17;18.63;;;12.35;;
37305;SDS011;23193;42.656;21.170;2023-11-22T11:30:47;24.83;;;14.48;;
37305;SDS011;23193;42.656;21.170;2023-11-22T11:33:18;25.98;;;14.45;;
37305;SDS011;23193;42.656;21.170;2023-11-22T11:35:47;22.58;;;13.43;;
37305;SDS011;23193;42.656;21.170;2023-11-22T11:38:16;25.17;;;13.80;;
37305;SDS011;23193;42.656;21.170;2023-11-22T11:40:45;24.88;;;14.55;;
37305;SDS011;23193;42.656;21.170;2023-11-22T11:43:13;71.82;;;32.92;;
37305;SDS011;23193;42.656;21.170;2023-11-22T11:45:41;66.45;;;31.08;;
37305;SDS011;23193;42.656;21.170;2023-11-22T11:48:13;91.18;;;38.75;;
37305;SDS011;23193;42.656;21.170;2023-11-22T11:50:45;60.85;;;26.25;;
37305;SDS011;23193;42.656;21.170;2023-11-22T11:53:13;48.58;;;22.48;;
37305;SDS011;23193;42.656;21.170;2023-11-22T11:55:40;44.33;;;21.95;;
37305;SDS011;23193;42.656;21.170;2023-11-22T11:58:07;38.25;;;18.58;;
37305;SDS011;23193;42.656;21.170;2023-11-22T12:00:39;37.93;;;19.53;;
37305;SDS011;23193;42.656;21.170;2023-11-22T12:05:59;32.00;;;13.63;;
37305;SDS011;23193;42.656;21.170;2023-11-22T12:08:26;27.50;;;12.55;;
37305;SDS011;23193;42.656;21.170;2023-11-22T12:10:57;21.55;;;11.40;;
37305;SDS011;23193;42.656;21.170;2023-11-22T12:13:25;22.25;;;9.73;;
37305;SDS011;23193;42.656;21.170;2023-11-22T12:15:53;17.65;;;10.20;;
37305;SDS011;23193;42.656;21.170;2023-11-22T12:18:23;32.47;;;12.88;;
37305;SDS011;23193;42.656;21.170;2023-11-22T12:20:56;15.73;;;6.90;;
37305;SDS011;23193;42.656;21.170;2023-11-22T12:23:24;32.50;;;12.63;;
37305;SDS011;23193;42.656;21.170;2023-11-22T12:25:56;27.63;;;9.77;;
37305;SDS011;23193;42.656;21.170;2023-11-22T12:28:23;25.20;;;11.35;;
37305;SDS011;23193;42.656;21.170;2023-11-22T12:30:52;26.05;;;11.50;;
37305;SDS011;23193;42.656;21.170;2023-11-22T12:33:20;33.58;;;13.07;;
37305;SDS011;23193;42.656;21.170;2023-11-22T12:35:50;23.70;;;11.57;;
37305;SDS011;23193;42.656;21.170;2023-11-22T12:38:17;34.00;;;18.52;;
37305;SDS011;23193;42.656;21.170;2023-11-22T12:40:45;13.05;;;7.15;;
37305;SDS011;23193;42.656;21.170;2023-11-22T12:43:15;24.02;;;10.13;;
37305;SDS011;23193;42.656;21.170;2023-11-22T12:45:42;38.35;;;16.02;;
37305;SDS011;23193;42.656;21.170;2023-11-22T12:48:22;24.20;;;11.18;;
37305;SDS011;23193;42.656;21.170;2023-11-22T12:50:51;20.00;;;10.20;;
37305;SDS011;23193;42.656;21.170;2023-11-22T12:53:19;19.15;;;9.95;;
37305;SDS011;23193;42.656;21.170;2023-11-22T12:55:49;21.77;;;11.70;;
37305;SDS011;23193;42.656;21.170;2023-11-22T12:58:17;25.55;;;12.88;;
37305;SDS011;23193;42.656;21.170;2023-11-22T13:00:45;22.52;;;13.55;;
37305;SDS011;23193;42.656;21.170;2023-11-22T13:03:12;23.35;;;11.23;;
37305;SDS011;23193;42.656;21.170;2023-11-22T13:05:41;17.85;;;10.05;;
37305;SDS011;23193;42.656;21.170;2023-11-22T13:08:10;15.98;;;9.85;;
37305;SDS011;23193;42.656;21.170;2023-11-22T13:10:40;26.97;;;13.77;;
37305;SDS011;23193;42.656;21.170;2023-11-22T13:13:09;21.60;;;12.93;;
37305;SDS011;23193;42.656;21.170;2023-11-22T13:15:37;19.80;;;11.40;;
37305;SDS011;23193;42.656;21.170;2023-11-22T13:18:04;26.33;;;14.18;;
37305;SDS011;23193;42.656;21.170;2023-11-22T13:20:34;22.23;;;12.43;;
37305;SDS011;23193;42.656;21.170;2023-11-22T13:23:02;25.05;;;13.90;;
37305;SDS011;23193;42.656;21.170;2023-11-22T13:25:29;26.42;;;15.02;;
37305;SDS011;23193;42.656;21.170;2023-11-22T13:27:56;24.70;;;12.63;;
37305;SDS011;23193;42.656;21.170;2023-11-22T13:30:24;29.75;;;15.25;;
37305;SDS011;23193;42.656;21.170;2023-11-22T13:32:52;27.20;;;15.65;;
37305;SDS011;23193;42.656;21.170;2023-11-22T13:35:20;22.77;;;12.27;;
37305;SDS011;23193;42.656;21.170;2023-11-22T13:37:48;22.45;;;12.57;;
37305;SDS011;23193;42.656;21.170;2023-11-22T13:40:16;24.25;;;14.77;;
37305;SDS011;23193;42.656;21.170;2023-11-22T13:42:44;25.40;;;14.32;;
37305;SDS011;23193;42.656;21.170;2023-11-22T13:45:12;21.63;;;10.13;;
37305;SDS011;23193;42.656;21.170;2023-11-22T13:47:44;24.15;;;12.95;;
37305;SDS011;23193;42.656;21.170;2023-11-22T13:50:14;27.15;;;13.30;;
37305;SDS011;23193;42.656;21.170;2023-11-22T13:55:13;30.95;;;16.25;;
37305;SDS011;23193;42.656;21.170;2023-11-22T13:57:40;22.48;;;10.18;;
37305;SDS011;23193;42.656;21.170;2023-11-22T14:00:08;17.83;;;9.48;;
37305;SDS011;23193;42.656;21.170;2023-11-22T14:02:41;12.27;;;4.15;;
37305;SDS011;23193;42.656;21.170;2023-11-22T14:05:08;12.00;;;5.40;;
37305;SDS011;23193;42.656;21.170;2023-11-22T14:07:36;15.50;;;8.45;;
37305;SDS011;23193;42.656;21.170;2023-11-22T14:10:04;10.90;;;6.38;;
37305;SDS011;23193;42.656;21.170;2023-11-22T14:12:32;13.05;;;8.02;;
37305;SDS011;23193;42.656;21.170;2023-11-22T14:15:00;10.77;;;5.72;;
37305;SDS011;23193;42.656;21.170;2023-11-22T14:17:27;12.13;;;7.35;;
37305;SDS011;23193;42.656;21.170;2023-11-22T14:19:55;13.77;;;8.10;;
37305;SDS011;23193;42.656;21.170;2023-11-22T14:22:23;16.85;;;7.88;;
37305;SDS011;23193;42.656;21.170;2023-11-22T14:24:50;21.23;;;9.45;;
37305;SDS011;23193;42.656;21.170;2023-11-22T14:27:17;14.48;;;7.97;;
37305;SDS011;23193;42.656;21.170;2023-11-22T14:29:46;13.43;;;6.93;;